createdAt,value
2018-06-19T00:04:05.708Z,7.51
2018-06-19T00:10:05.484Z,7.62
2018-06-19T00:16:11.721Z,8.03
2018-06-19T00:21:50.716Z,7.35
2018-06-19T00:27:45.754Z,7.64
2018-06-19T00:33:40.709Z,7.99
2018-06-19T00:39:35.713Z,8.08
2018-06-19T00:45:30.726Z,8.01
2018-06-19T00:51:25.739Z,7.94
2018-06-19T00:57:20.701Z,8.07
2018-06-19T01:03:15.786Z,7.88
2018-06-19T01:09:10.737Z,7.91
2018-06-19T01:15:05.771Z,7.77
2018-06-19T01:21:00.752Z,8.04
2018-06-19T01:26:55.769Z,8.35
2018-06-19T01:32:50.782Z,9.05
2018-06-19T01:38:45.782Z,7.83
2018-06-19T01:44:40.764Z,8.43
2018-06-19T01:50:35.734Z,8.44
2018-06-19T01:56:30.859Z,8.67
2018-06-19T02:02:25.799Z,8.68
2018-06-19T02:08:20.794Z,8.82
2018-06-19T02:14:15.812Z,8.43
2018-06-19T02:20:10.776Z,9.03
2018-06-19T02:26:05.781Z,8.69
2018-06-19T02:32:00.812Z,9.2
2018-06-19T02:37:55.811Z,9.11
2018-06-19T02:43:50.876Z,9.41
2018-06-19T02:49:45.806Z,9.62
2018-06-19T02:55:40.834Z,9.35
2018-06-19T03:01:35.946Z,9.08
2018-06-19T03:07:30.824Z,9.1
2018-06-19T03:13:25.821Z,8.47
2018-06-19T03:19:20.862Z,8.23
2018-06-19T03:25:15.857Z,8.21
2018-06-19T03:31:10.922Z,8.04
2018-06-19T03:37:05.870Z,8.16
2018-06-19T03:43:00.889Z,7.13
2018-06-19T03:48:55.869Z,9.13
2018-06-19T03:54:50.862Z,7.78
2018-06-19T04:00:45.877Z,8.31
2018-06-19T04:06:40.933Z,8.35
2018-06-19T04:12:35.952Z,9.67
2018-06-19T04:18:30.895Z,10.61
2018-06-19T04:24:25.883Z,10.11
2018-06-19T04:30:20.900Z,9.91
2018-06-19T04:36:15.955Z,10.27
2018-06-19T04:42:10.986Z,10.01
2018-06-19T04:48:05.929Z,9.76
2018-06-19T04:54:00.902Z,10.64
2018-06-19T04:59:55.905Z,10.45
2018-06-19T05:05:50.961Z,9.12
2018-06-19T05:11:46.002Z,8.33
2018-06-19T05:17:41.020Z,7.58
2018-06-19T05:23:35.925Z,6.17
2018-06-19T05:29:30.969Z,5.76
2018-06-19T05:35:25.933Z,5.63
2018-06-19T05:41:20.965Z,5.5
2018-06-19T05:47:15.987Z,9.67
2018-06-19T05:53:10.935Z,11.06
2018-06-19T05:59:05.961Z,11.43
2018-06-19T06:05:00.965Z,11.73
2018-06-19T06:10:55.986Z,11.68
2018-06-19T06:16:50.948Z,12.16
2018-06-19T06:22:45.964Z,12.09
2018-06-19T06:28:40.958Z,12.14
2018-06-19T06:34:36.016Z,12.28
2018-06-19T06:40:30.972Z,10.43
2018-06-19T06:46:26.047Z,9.7
2018-06-19T06:52:21.047Z,7.74
2018-06-19T06:58:15.989Z,6.92
2018-06-19T07:04:11.004Z,5.52
2018-06-19T07:10:06.106Z,5.01
2018-06-19T07:16:01.219Z,4.71
2018-06-19T07:21:56.013Z,4.2
2018-06-19T07:27:50.997Z,4.26
2018-06-19T07:33:46.049Z,4.34
2018-06-19T07:39:41.008Z,3.81
2018-06-19T07:45:36.043Z,3.88
2018-06-19T07:51:31.108Z,3.51
2018-06-19T07:57:26.074Z,3.92
2018-06-19T08:03:21.041Z,4.28
2018-06-19T08:09:16.153Z,3.81
2018-06-19T08:15:11.066Z,3.42
2018-06-19T08:21:06.048Z,3.29
2018-06-19T08:27:01.061Z,3.13
2018-06-19T08:32:56.088Z,3.52
2018-06-19T08:38:51.126Z,3.15
2018-06-19T08:44:46.062Z,2.73
2018-06-19T08:50:41.091Z,2.81
2018-06-19T08:56:36.116Z,2.84
2018-06-19T09:02:31.075Z,2.85
2018-06-19T09:08:26.109Z,2.72
2018-06-19T09:14:21.149Z,2.73
2018-06-19T09:20:16.232Z,2.4
2018-06-19T09:26:11.102Z,2.53
2018-06-19T09:32:06.163Z,2.47
2018-06-19T09:38:01.154Z,2.29
2018-06-19T09:43:56.127Z,2.66
2018-06-19T09:49:51.187Z,2.74
2018-06-19T09:55:46.181Z,2.48
2018-06-19T10:01:41.166Z,2.78
2018-06-19T10:07:36.155Z,2.38
2018-06-19T10:13:31.132Z,2.11
2018-06-19T10:19:26.234Z,1.78
2018-06-19T10:25:21.139Z,1.78
2018-06-19T10:31:16.181Z,1.7
2018-06-19T10:37:11.190Z,1.75
2018-06-19T10:43:06.266Z,1.69
2018-06-19T10:49:01.214Z,1.57
2018-06-19T10:54:56.226Z,1.63
2018-06-19T11:00:51.258Z,1.57
2018-06-19T11:06:46.245Z,1.6
2018-06-19T11:12:41.260Z,1.7
2018-06-19T11:18:36.244Z,1.46
2018-06-19T11:24:31.259Z,1.4
2018-06-19T11:30:26.259Z,1.46
2018-06-19T11:36:21.221Z,1.45
2018-06-19T11:42:16.268Z,1.58
2018-06-19T11:48:11.303Z,1.46
2018-06-19T11:54:06.285Z,1.53
2018-06-19T12:00:01.245Z,1.27
2018-06-19T12:05:56.275Z,1.33
2018-06-19T12:11:51.261Z,1.55
2018-06-19T12:17:46.280Z,1.58
2018-06-19T12:23:41.332Z,1.47
2018-06-19T12:29:36.354Z,1.4
2018-06-19T12:35:31.316Z,1.69
2018-06-19T12:41:26.288Z,1.39
2018-06-19T12:47:21.276Z,1.64
2018-06-19T12:53:16.355Z,1.36
2018-06-19T12:59:11.332Z,1.63
2018-06-19T13:05:06.328Z,1.49
2018-06-19T13:11:01.368Z,1.48
2018-06-19T13:16:56.318Z,1.85
2018-06-19T13:22:51.343Z,1.47
2018-06-19T13:28:46.416Z,1.72
2018-06-19T13:34:41.424Z,1.52
2018-06-19T13:40:36.376Z,1.51
2018-06-19T13:46:31.407Z,1.59
2018-06-19T13:52:26.382Z,1.6
2018-06-19T13:58:21.393Z,1.61
2018-06-19T14:04:16.389Z,1.82
2018-06-19T14:10:11.363Z,1.52
2018-06-19T14:16:06.388Z,1.72
2018-06-19T14:22:01.429Z,2.03
2018-06-19T14:27:56.389Z,1.92
2018-06-19T14:33:51.389Z,1.63
2018-06-19T14:39:46.417Z,1.76
2018-06-19T14:45:41.428Z,1.82
2018-06-19T14:51:36.448Z,2.04
2018-06-19T14:57:31.429Z,2.03
2018-06-19T15:03:26.440Z,2.27
2018-06-19T15:09:21.449Z,2.11
2018-06-19T15:15:16.464Z,2.33
2018-06-19T15:21:11.464Z,2.22
2018-06-19T15:27:06.451Z,2.61
2018-06-19T15:33:01.426Z,2.14
2018-06-19T15:38:56.544Z,2.21
2018-06-19T15:44:51.466Z,2.33
2018-06-19T15:50:46.459Z,2.36
2018-06-19T15:56:41.463Z,2.3
2018-06-19T16:02:36.459Z,2.71
2018-06-19T16:08:31.493Z,2.41
2018-06-19T16:14:26.507Z,2.41
2018-06-19T16:20:21.510Z,3.33
2018-06-19T16:26:16.607Z,2.6
2018-06-19T16:32:11.535Z,2.38
2018-06-19T16:38:06.525Z,2.28
2018-06-19T16:44:01.553Z,2.49
2018-06-19T16:49:56.617Z,2.19
2018-06-19T16:55:51.522Z,2.3
2018-06-19T17:01:46.585Z,2.25
2018-06-19T17:07:41.560Z,2.1
2018-06-19T17:13:36.540Z,2.21
2018-06-19T17:19:31.547Z,2.01
2018-06-19T17:25:26.562Z,1.98
2018-06-19T17:31:21.588Z,2.03
2018-06-19T17:37:16.608Z,2.05
2018-06-19T17:43:11.552Z,2.09
2018-06-19T17:49:06.597Z,2.03
2018-06-19T17:55:01.603Z,1.92
2018-06-19T18:00:56.578Z,2.05
2018-06-19T18:06:51.603Z,2.1
2018-06-19T18:12:46.580Z,2.12
2018-06-19T18:18:41.570Z,2.12
2018-06-19T18:24:36.661Z,2.74
2018-06-19T18:30:31.578Z,1.94
2018-06-19T18:36:26.609Z,2.2
2018-06-19T18:42:21.675Z,2.1
2018-06-19T18:48:16.669Z,1.88
2018-06-19T18:54:11.609Z,2.05
2018-06-19T19:00:06.686Z,2.01
2018-06-19T19:06:01.678Z,1.79
2018-06-19T19:11:56.655Z,1.83
2018-06-19T19:17:51.664Z,2.13
2018-06-19T19:23:46.708Z,1.83
2018-06-19T19:29:41.696Z,2.03
2018-06-19T19:35:36.629Z,1.87
2018-06-19T19:41:31.698Z,2.17
2018-06-19T19:47:26.664Z,2.2
2018-06-19T19:53:21.727Z,2.23
2018-06-19T19:59:16.719Z,2.3
2018-06-19T20:05:11.656Z,2.2
2018-06-19T20:11:06.710Z,1.77
2018-06-19T20:17:01.677Z,1.81
2018-06-19T20:22:56.704Z,2.13
2018-06-19T20:28:51.727Z,1.65
2018-06-19T20:34:46.708Z,1.67
2018-06-19T20:40:41.737Z,1.56
2018-06-19T20:46:36.787Z,1.51
2018-06-19T20:52:31.786Z,1.12
2018-06-19T20:58:26.789Z,1.48
2018-06-19T21:04:21.751Z,1.31
2018-06-19T21:10:16.726Z,1.8
2018-06-19T21:16:11.777Z,1.4
2018-06-19T21:22:06.792Z,1.32
2018-06-19T21:28:01.785Z,1.55
2018-06-19T21:33:56.831Z,1.35
2018-06-19T21:39:51.796Z,1.49
2018-06-19T21:45:46.793Z,1.58
2018-06-19T21:51:41.784Z,1.31
2018-06-19T21:57:36.778Z,1.31
2018-06-19T22:03:31.789Z,1.87
2018-06-19T22:09:26.803Z,1.57
2018-06-19T22:15:21.814Z,2.07
2018-06-19T22:21:16.818Z,1.49
2018-06-19T22:27:11.851Z,1.86
2018-06-19T22:33:06.842Z,1.5
2018-06-19T22:39:01.845Z,1.49
2018-06-19T22:44:56.803Z,1.85
2018-06-19T22:50:51.837Z,1.45
2018-06-19T22:56:46.823Z,1.78
2018-06-19T23:02:41.839Z,1.91
2018-06-19T23:08:36.881Z,1.62
2018-06-19T23:14:31.866Z,1.53
2018-06-19T23:20:26.900Z,1.58
2018-06-19T23:26:21.860Z,1.7
2018-06-19T23:32:16.871Z,1.42
2018-06-19T23:38:11.856Z,1.53
2018-06-19T23:44:06.849Z,1.63
2018-06-19T23:50:01.918Z,1.6
2018-06-19T23:55:56.865Z,1.66
